sensor_id;sensor_type;location;lat;lon;timestamp;pressure;altitude;pressure_sealevel;temperature;humidity
58471;BME280;44258;51.288;12.068;2022-07-03T00:02:15;100802.13;;;18.37;46.46
58471;BME280;44258;51.288;12.068;2022-07-03T00:04:41;100805.81;;;18.36;46.57
58471;BME280;44258;51.288;12.068;2022-07-03T00:07:08;100813.03;;;18.37;46.43
58471;BME280;44258;51.288;12.068;2022-07-03T00:09:34;100805.72;;;18.37;46.83
58471;BME280;44258;51.288;12.068;2022-07-03T00:12:01;100802.47;;;18.43;46.45
58471;BME280;44258;51.288;12.068;2022-07-03T00:14:28;100802.38;;;18.45;46.35
58471;BME280;44258;51.288;12.068;2022-07-03T00:16:57;100806.81;;;18.46;45.93
58471;BME280;44258;51.288;12.068;2022-07-03T00:19:25;100804.97;;;18.35;46.57
58471;BME280;44258;51.288;12.068;2022-07-03T00:21:53;100807.06;;;18.31;46.76
58471;BME280;44258;51.288;12.068;2022-07-03T00:24:24;100801.63;;;18.31;46.46
58471;BME280;44258;51.288;12.068;2022-07-03T00:26:52;100805.47;;;18.29;46.98
58471;BME280;44258;51.288;12.068;2022-07-03T00:29:21;100799.53;;;18.12;47.50
58471;BME280;44258;51.288;12.068;2022-07-03T00:31:48;100795.56;;;18.17;47.22
58471;BME280;44258;51.288;12.068;2022-07-03T00:34:16;100802.50;;;18.21;47.04
58471;BME280;44258;51.288;12.068;2022-07-03T00:36:46;100792.97;;;18.15;47.38
58471;BME280;44258;51.288;12.068;2022-07-03T00:39:13;100788.66;;;18.12;47.75
58471;BME280;44258;51.288;12.068;2022-07-03T00:41:40;100786.91;;;18.11;47.49
58471;BME280;44258;51.288;12.068;2022-07-03T00:44:10;100791.25;;;18.14;47.33
58471;BME280;44258;51.288;12.068;2022-07-03T00:46:37;100784.66;;;18.05;47.76
58471;BME280;44258;51.288;12.068;2022-07-03T00:49:06;100782.19;;;18.02;47.94
58471;BME280;44258;51.288;12.068;2022-07-03T00:51:34;100782.41;;;17.99;48.13
58471;BME280;44258;51.288;12.068;2022-07-03T00:54:07;100777.34;;;17.83;48.43
58471;BME280;44258;51.288;12.068;2022-07-03T00:56:38;100784.50;;;17.62;49.11
58471;BME280;44258;51.288;12.068;2022-07-03T00:59:05;100776.59;;;17.23;50.33
58471;BME280;44258;51.288;12.068;2022-07-03T01:01:32;100776.75;;;17.33;49.88
58471;BME280;44258;51.288;12.068;2022-07-03T01:04:13;100780.34;;;17.33;49.96
58471;BME280;44258;51.288;12.068;2022-07-03T01:06:53;100771.16;;;17.23;50.11
58471;BME280;44258;51.288;12.068;2022-07-03T01:09:36;100782.84;;;17.37;49.94
58471;BME280;44258;51.288;12.068;2022-07-03T01:12:07;100787.44;;;17.47;49.28
58471;BME280;44258;51.288;12.068;2022-07-03T01:14:43;100780.59;;;17.42;49.79
58471;BME280;44258;51.288;12.068;2022-07-03T01:17:20;100783.44;;;17.40;49.41
58471;BME280;44258;51.288;12.068;2022-07-03T01:19:56;100772.34;;;17.43;49.62
58471;BME280;44258;51.288;12.068;2022-07-03T01:22:34;100775.44;;;17.50;49.08
58471;BME280;44258;51.288;12.068;2022-07-03T01:25:24;100771.38;;;17.56;48.96
58471;BME280;44258;51.288;12.068;2022-07-03T01:27:59;100771.25;;;17.57;48.47
58471;BME280;44258;51.288;12.068;2022-07-03T01:30:32;100767.91;;;17.53;48.53
58471;BME280;44258;51.288;12.068;2022-07-03T01:33:03;100770.59;;;17.42;48.81
58471;BME280;44258;51.288;12.068;2022-07-03T01:35:35;100770.97;;;17.38;49.04
58471;BME280;44258;51.288;12.068;2022-07-03T01:38:06;100767.00;;;17.42;48.96
58471;BME280;44258;51.288;12.068;2022-07-03T01:40:34;100762.91;;;17.36;49.19
58471;BME280;44258;51.288;12.068;2022-07-03T01:43:04;100765.78;;;17.34;49.36
58471;BME280;44258;51.288;12.068;2022-07-03T01:45:32;100765.53;;;17.38;49.15
58471;BME280;44258;51.288;12.068;2022-07-03T01:48:00;100761.84;;;17.39;48.96
58471;BME280;44258;51.288;12.068;2022-07-03T01:50:28;100753.78;;;17.37;49.14
58471;BME280;44258;51.288;12.068;2022-07-03T01:52:56;100749.75;;;17.43;49.13
58471;BME280;44258;51.288;12.068;2022-07-03T01:55:23;100748.38;;;17.48;48.89
58471;BME280;44258;51.288;12.068;2022-07-03T01:57:50;100745.91;;;17.45;48.79
58471;BME280;44258;51.288;12.068;2022-07-03T02:00:20;100749.31;;;17.36;49.24
58471;BME280;44258;51.288;12.068;2022-07-03T02:02:54;100740.84;;;17.41;49.35
58471;BME280;44258;51.288;12.068;2022-07-03T02:05:34;100739.34;;;17.48;49.05
58471;BME280;44258;51.288;12.068;2022-07-03T02:08:25;100743.44;;;17.53;48.69
58471;BME280;44258;51.288;12.068;2022-07-03T02:11:11;100744.16;;;17.44;48.71
58471;BME280;44258;51.288;12.068;2022-07-03T02:13:40;100739.72;;;17.43;48.85
58471;BME280;44258;51.288;12.068;2022-07-03T02:16:18;100740.19;;;17.37;49.18
58471;BME280;44258;51.288;12.068;2022-07-03T02:18:52;100746.28;;;17.41;48.99
58471;BME280;44258;51.288;12.068;2022-07-03T02:21:25;100750.47;;;17.45;48.94
58471;BME280;44258;51.288;12.068;2022-07-03T02:23:58;100744.91;;;17.46;48.85
58471;BME280;44258;51.288;12.068;2022-07-03T02:26:32;100745.03;;;17.45;48.56
58471;BME280;44258;51.288;12.068;2022-07-03T02:29:02;100745.16;;;17.43;48.59
58471;BME280;44258;51.288;12.068;2022-07-03T02:31:34;100739.34;;;17.37;48.72
58471;BME280;44258;51.288;12.068;2022-07-03T02:34:04;100744.50;;;17.28;48.83
58471;BME280;44258;51.288;12.068;2022-07-03T02:36:34;100738.25;;;17.15;49.14
58471;BME280;44258;51.288;12.068;2022-07-03T02:39:02;100736.00;;;17.09;49.33
58471;BME280;44258;51.288;12.068;2022-07-03T02:41:39;100743.50;;;16.94;49.69
58471;BME280;44258;51.288;12.068;2022-07-03T02:44:16;100735.56;;;16.91;50.19
58471;BME280;44258;51.288;12.068;2022-07-03T02:46:54;100738.38;;;16.89;49.79
58471;BME280;44258;51.288;12.068;2022-07-03T02:49:58;100730.03;;;16.68;50.39
58471;BME280;44258;51.288;12.068;2022-07-03T02:52:41;100740.84;;;16.57;50.56
58471;BME280;44258;51.288;12.068;2022-07-03T02:55:16;100732.19;;;16.52;50.90
58471;BME280;44258;51.288;12.068;2022-07-03T02:57:55;100730.88;;;16.45;51.18
58471;BME280;44258;51.288;12.068;2022-07-03T03:00:23;100738.53;;;16.40;51.21
58471;BME280;44258;51.288;12.068;2022-07-03T03:02:55;100736.78;;;16.39;51.25
58471;BME280;44258;51.288;12.068;2022-07-03T03:05:27;100732.44;;;16.36;51.37
58471;BME280;44258;51.288;12.068;2022-07-03T03:08:02;100722.69;;;16.33;51.64
58471;BME280;44258;51.288;12.068;2022-07-03T03:10:34;100722.47;;;16.24;51.88
58471;BME280;44258;51.288;12.068;2022-07-03T03:13:03;100712.06;;;16.18;51.99
58471;BME280;44258;51.288;12.068;2022-07-03T03:15:31;100714.03;;;16.15;52.03
58471;BME280;44258;51.288;12.068;2022-07-03T03:18:03;100715.44;;;16.21;52.15
58471;BME280;44258;51.288;12.068;2022-07-03T03:20:31;100721.94;;;16.31;52.20
58471;BME280;44258;51.288;12.068;2022-07-03T03:23:16;100726.34;;;16.45;51.73
58471;BME280;44258;51.288;12.068;2022-07-03T03:25:43;100722.72;;;16.58;51.25
58471;BME280;44258;51.288;12.068;2022-07-03T03:28:11;100726.81;;;16.63;51.75
58471;BME280;44258;51.288;12.068;2022-07-03T03:30:38;100727.09;;;16.71;51.38
58471;BME280;44258;51.288;12.068;2022-07-03T03:33:06;100723.00;;;16.66;51.23
58471;BME280;44258;51.288;12.068;2022-07-03T03:35:35;100721.41;;;16.50;51.51
58471;BME280;44258;51.288;12.068;2022-07-03T03:38:02;100725.41;;;16.33;52.07
58471;BME280;44258;51.288;12.068;2022-07-03T03:40:28;100715.63;;;16.18;52.39
58471;BME280;44258;51.288;12.068;2022-07-03T03:42:55;100716.34;;;16.09;52.83
58471;BME280;44258;51.288;12.068;2022-07-03T03:45:21;100722.56;;;15.98;53.08
58471;BME280;44258;51.288;12.068;2022-07-03T03:47:48;100726.31;;;15.95;53.16
58471;BME280;44258;51.288;12.068;2022-07-03T03:50:16;100726.13;;;15.99;53.10
58471;BME280;44258;51.288;12.068;2022-07-03T03:52:42;100728.03;;;16.09;52.95
58471;BME280;44258;51.288;12.068;2022-07-03T03:55:09;100719.34;;;16.17;53.01
58471;BME280;44258;51.288;12.068;2022-07-03T03:57:36;100723.31;;;16.24;53.03
58471;BME280;44258;51.288;12.068;2022-07-03T04:00:03;100728.88;;;16.36;52.54
58471;BME280;44258;51.288;12.068;2022-07-03T04:02:30;100716.06;;;16.38;52.52
58471;BME280;44258;51.288;12.068;2022-07-03T04:04:57;100712.34;;;16.39;52.53
58471;BME280;44258;51.288;12.068;2022-07-03T04:07:25;100722.63;;;16.46;52.48
58471;BME280;44258;51.288;12.068;2022-07-03T04:09:51;100717.31;;;16.45;52.55
58471;BME280;44258;51.288;12.068;2022-07-03T04:12:18;100721.38;;;16.39;52.55
58471;BME280;44258;51.288;12.068;2022-07-03T04:14:44;100716.91;;;16.38;52.59
58471;BME280;44258;51.288;12.068;2022-07-03T04:17:11;100716.16;;;16.36;52.71
58471;BME280;44258;51.288;12.068;2022-07-03T04:19:37;100712.25;;;16.40;52.83
58471;BME280;44258;51.288;12.068;2022-07-03T04:22:04;100709.91;;;16.47;52.63
58471;BME280;44258;51.288;12.068;2022-07-03T04:24:35;100711.84;;;16.58;52.65
58471;BME280;44258;51.288;12.068;2022-07-03T04:27:01;100702.78;;;16.70;52.29
58471;BME280;44258;51.288;12.068;2022-07-03T04:29:28;100704.16;;;16.76;52.17
58471;BME280;44258;51.288;12.068;2022-07-03T04:31:55;100701.44;;;16.76;52.26
58471;BME280;44258;51.288;12.068;2022-07-03T04:34:21;100701.56;;;16.74;52.47
58471;BME280;44258;51.288;12.068;2022-07-03T04:36:48;100698.47;;;16.79;52.65
58471;BME280;44258;51.288;12.068;2022-07-03T04:39:14;100698.88;;;16.85;52.60
58471;BME280;44258;51.288;12.068;2022-07-03T04:41:42;100694.72;;;16.92;52.45
58471;BME280;44258;51.288;12.068;2022-07-03T04:44:09;100698.09;;;17.07;52.49
58471;BME280;44258;51.288;12.068;2022-07-03T04:46:35;100701.03;;;17.28;52.03
58471;BME280;44258;51.288;12.068;2022-07-03T04:49:02;100692.38;;;17.46;51.76
58471;BME280;44258;51.288;12.068;2022-07-03T04:51:28;100702.28;;;17.58;51.75
58471;BME280;44258;51.288;12.068;2022-07-03T04:53:55;100696.84;;;17.69;51.48
58471;BME280;44258;51.288;12.068;2022-07-03T04:56:21;100695.34;;;17.77;51.18
58471;BME280;44258;51.288;12.068;2022-07-03T04:58:49;100692.53;;;17.89;50.94
58471;BME280;44258;51.288;12.068;2022-07-03T05:01:15;100692.00;;;18.07;50.63
58471;BME280;44258;51.288;12.068;2022-07-03T05:03:42;100696.97;;;18.24;50.50
58471;BME280;44258;51.288;12.068;2022-07-03T05:06:08;100695.94;;;18.37;49.64
58471;BME280;44258;51.288;12.068;2022-07-03T05:08:35;100699.22;;;18.51;49.24
58471;BME280;44258;51.288;12.068;2022-07-03T05:11:01;100700.25;;;18.50;49.08
58471;BME280;44258;51.288;12.068;2022-07-03T05:13:28;100703.69;;;18.52;49.39
58471;BME280;44258;51.288;12.068;2022-07-03T05:15:56;100698.31;;;18.62;48.93
58471;BME280;44258;51.288;12.068;2022-07-03T05:18:22;100696.44;;;18.74;49.11
58471;BME280;44258;51.288;12.068;2022-07-03T05:20:49;100703.44;;;18.88;48.83
58471;BME280;44258;51.288;12.068;2022-07-03T05:23:15;100701.69;;;18.98;48.41
58471;BME280;44258;51.288;12.068;2022-07-03T05:25:42;100692.31;;;19.12;48.29
58471;BME280;44258;51.288;12.068;2022-07-03T05:28:08;100697.28;;;19.07;47.72
58471;BME280;44258;51.288;12.068;2022-07-03T05:30:35;100700.69;;;19.20;47.96
58471;BME280;44258;51.288;12.068;2022-07-03T05:33:03;100693.16;;;19.33;47.31
58471;BME280;44258;51.288;12.068;2022-07-03T05:35:30;100698.78;;;19.42;47.56
58471;BME280;44258;51.288;12.068;2022-07-03T05:37:56;100692.97;;;19.46;47.64
58471;BME280;44258;51.288;12.068;2022-07-03T05:40:23;100689.31;;;19.67;46.86
58471;BME280;44258;51.288;12.068;2022-07-03T05:42:48;100686.94;;;19.73;46.35
58471;BME280;44258;51.288;12.068;2022-07-03T05:45:15;100687.53;;;19.77;46.74
58471;BME280;44258;51.288;12.068;2022-07-03T05:47:41;100683.91;;;20.07;46.54
58471;BME280;44258;51.288;12.068;2022-07-03T05:50:10;100681.81;;;20.30;45.80
58471;BME280;44258;51.288;12.068;2022-07-03T05:52:36;100680.38;;;20.36;45.80
58471;BME280;44258;51.288;12.068;2022-07-03T05:55:04;100685.09;;;20.44;45.16
58471;BME280;44258;51.288;12.068;2022-07-03T05:57:31;100680.44;;;20.65;45.46
58471;BME280;44258;51.288;12.068;2022-07-03T05:59:57;100678.13;;;20.90;45.06
58471;BME280;44258;51.288;12.068;2022-07-03T06:02:23;100686.13;;;21.21;44.33
58471;BME280;44258;51.288;12.068;2022-07-03T06:04:50;100685.31;;;21.30;43.70
58471;BME280;44258;51.288;12.068;2022-07-03T06:07:18;100683.06;;;21.53;43.73
58471;BME280;44258;51.288;12.068;2022-07-03T06:09:44;100687.00;;;21.78;43.14
58471;BME280;44258;51.288;12.068;2022-07-03T06:12:13;100683.78;;;21.92;42.84
58471;BME280;44258;51.288;12.068;2022-07-03T06:14:39;100691.31;;;22.18;42.65
58471;BME280;44258;51.288;12.068;2022-07-03T06:17:06;100686.38;;;22.49;41.82
58471;BME280;44258;51.288;12.068;2022-07-03T06:19:32;100690.53;;;22.71;41.74
58471;BME280;44258;51.288;12.068;2022-07-03T06:21:59;100682.22;;;22.99;40.97
58471;BME280;44258;51.288;12.068;2022-07-03T06:24:27;100678.91;;;23.13;40.98
58471;BME280;44258;51.288;12.068;2022-07-03T06:26:53;100680.50;;;23.42;40.02
58471;BME280;44258;51.288;12.068;2022-07-03T06:29:20;100680.28;;;23.62;39.41
58471;BME280;44258;51.288;12.068;2022-07-03T06:31:46;100674.19;;;23.76;39.38
58471;BME280;44258;51.288;12.068;2022-07-03T06:34:13;100676.16;;;23.92;39.37
58471;BME280;44258;51.288;12.068;2022-07-03T06:36:39;100670.41;;;24.11;38.83
58471;BME280;44258;51.288;12.068;2022-07-03T06:39:06;100672.38;;;24.36;38.94
58471;BME280;44258;51.288;12.068;2022-07-03T06:41:34;100670.03;;;24.57;38.14
58471;BME280;44258;51.288;12.068;2022-07-03T06:44:00;100672.09;;;24.71;38.67
58471;BME280;44258;51.288;12.068;2022-07-03T06:46:27;100667.13;;;25.00;37.71
58471;BME280;44258;51.288;12.068;2022-07-03T06:48:54;100663.31;;;25.34;37.42
58471;BME280;44258;51.288;12.068;2022-07-03T06:51:20;100663.97;;;25.60;36.56
58471;BME280;44258;51.288;12.068;2022-07-03T06:53:47;100665.31;;;25.73;36.58
58471;BME280;44258;51.288;12.068;2022-07-03T06:56:13;100666.78;;;26.00;36.29
58471;BME280;44258;51.288;12.068;2022-07-03T06:58:41;100666.38;;;26.11;35.55
58471;BME280;44258;51.288;12.068;2022-07-03T07:01:07;100669.13;;;26.11;34.85
58471;BME280;44258;51.288;12.068;2022-07-03T07:03:34;100662.09;;;26.08;35.57
58471;BME280;44258;51.288;12.068;2022-07-03T07:06:00;100660.06;;;26.02;35.83
58471;BME280;44258;51.288;12.068;2022-07-03T07:08:27;100655.75;;;26.31;35.29
58471;BME280;44258;51.288;12.068;2022-07-03T07:10:54;100655.47;;;26.49;35.89
58471;BME280;44258;51.288;12.068;2022-07-03T07:13:20;100652.56;;;26.74;35.40
58471;BME280;44258;51.288;12.068;2022-07-03T07:15:48;100653.03;;;27.00;35.35
58471;BME280;44258;51.288;12.068;2022-07-03T07:18:14;100649.50;;;27.29;34.25
58471;BME280;44258;51.288;12.068;2022-07-03T07:20:41;100646.72;;;27.29;34.23
58471;BME280;44258;51.288;12.068;2022-07-03T07:23:07;100651.81;;;27.41;34.15
58471;BME280;44258;51.288;12.068;2022-07-03T07:25:34;100649.41;;;27.38;34.46
58471;BME280;44258;51.288;12.068;2022-07-03T07:28:00;100647.53;;;27.38;34.73
58471;BME280;44258;51.288;12.068;2022-07-03T07:30:27;100650.56;;;27.43;33.50
58471;BME280;44258;51.288;12.068;2022-07-03T07:32:55;100647.63;;;27.60;33.13
58471;BME280;44258;51.288;12.068;2022-07-03T07:35:21;100641.50;;;27.64;33.82
58471;BME280;44258;51.288;12.068;2022-07-03T07:37:48;100647.34;;;27.99;33.60
58471;BME280;44258;51.288;12.068;2022-07-03T07:40:14;100642.56;;;28.29;32.62
58471;BME280;44258;51.288;12.068;2022-07-03T07:42:41;100635.41;;;28.50;32.09
58471;BME280;44258;51.288;12.068;2022-07-03T07:45:09;100636.13;;;28.59;31.81
58471;BME280;44258;51.288;12.068;2022-07-03T07:47:36;100640.19;;;28.84;31.31
58471;BME280;44258;51.288;12.068;2022-07-03T07:50:05;100635.00;;;28.96;30.68
58471;BME280;44258;51.288;12.068;2022-07-03T07:52:31;100635.75;;;29.05;31.07
58471;BME280;44258;51.288;12.068;2022-07-03T07:54:58;100640.75;;;29.23;30.22
58471;BME280;44258;51.288;12.068;2022-07-03T07:57:24;100634.47;;;29.36;30.23
58471;BME280;44258;51.288;12.068;2022-07-03T07:59:51;100637.47;;;29.41;30.12
58471;BME280;44258;51.288;12.068;2022-07-03T08:02:17;100632.94;;;29.33;29.53
58471;BME280;44258;51.288;12.068;2022-07-03T08:05:01;100640.97;;;29.49;29.72
58471;BME280;44258;51.288;12.068;2022-07-03T08:07:47;100633.13;;;29.60;29.40
58471;BME280;44258;51.288;12.068;2022-07-03T08:10:13;100630.22;;;29.68;29.19
58471;BME280;44258;51.288;12.068;2022-07-03T08:12:40;100626.94;;;29.93;28.59
58471;BME280;44258;51.288;12.068;2022-07-03T08:15:07;100617.50;;;29.17;29.87
58471;BME280;44258;51.288;12.068;2022-07-03T08:17:33;100620.44;;;29.72;29.06
58471;BME280;44258;51.288;12.068;2022-07-03T08:20:00;100620.00;;;29.68;28.47
58471;BME280;44258;51.288;12.068;2022-07-03T08:22:26;100624.19;;;29.99;28.71
58471;BME280;44258;51.288;12.068;2022-07-03T08:24:54;100619.91;;;29.97;28.56
58471;BME280;44258;51.288;12.068;2022-07-03T08:27:21;100617.41;;;30.08;27.39
58471;BME280;44258;51.288;12.068;2022-07-03T08:29:47;100614.88;;;30.20;28.47
58471;BME280;44258;51.288;12.068;2022-07-03T08:32:14;100617.41;;;29.67;28.47
58471;BME280;44258;51.288;12.068;2022-07-03T08:34:40;100616.50;;;30.01;28.23
58471;BME280;44258;51.288;12.068;2022-07-03T08:37:07;100613.00;;;30.41;27.22
58471;BME280;44258;51.288;12.068;2022-07-03T08:39:33;100611.19;;;30.68;27.44
58471;BME280;44258;51.288;12.068;2022-07-03T08:42:01;100611.41;;;30.86;26.67
58471;BME280;44258;51.288;12.068;2022-07-03T08:44:28;100619.06;;;30.71;27.07
58471;BME280;44258;51.288;12.068;2022-07-03T08:46:59;100613.53;;;30.91;26.77
58471;BME280;44258;51.288;12.068;2022-07-03T08:49:26;100609.25;;;31.02;26.77
58471;BME280;44258;51.288;12.068;2022-07-03T08:51:54;100609.66;;;31.05;26.56
58471;BME280;44258;51.288;12.068;2022-07-03T08:54:21;100612.91;;;31.02;26.16
58471;BME280;44258;51.288;12.068;2022-07-03T08:56:48;100610.09;;;31.09;26.38
58471;BME280;44258;51.288;12.068;2022-07-03T08:59:17;100606.69;;;31.14;26.19
58471;BME280;44258;51.288;12.068;2022-07-03T09:01:46;100607.75;;;31.06;26.56
58471;BME280;44258;51.288;12.068;2022-07-03T09:04:13;100619.25;;;30.56;26.93
58471;BME280;44258;51.288;12.068;2022-07-03T09:06:40;100603.94;;;30.80;25.94
58471;BME280;44258;51.288;12.068;2022-07-03T09:09:08;100605.41;;;31.03;25.56
58471;BME280;44258;51.288;12.068;2022-07-03T09:11:35;100601.78;;;30.96;24.77
58471;BME280;44258;51.288;12.068;2022-07-03T09:14:03;100599.84;;;30.90;26.08
58471;BME280;44258;51.288;12.068;2022-07-03T09:16:34;100607.34;;;31.02;26.21
58471;BME280;44258;51.288;12.068;2022-07-03T09:19:01;100600.28;;;31.20;25.91
58471;BME280;44258;51.288;12.068;2022-07-03T09:21:35;100594.94;;;30.98;24.17
58471;BME280;44258;51.288;12.068;2022-07-03T09:24:03;100599.84;;;30.83;24.49
58471;BME280;44258;51.288;12.068;2022-07-03T09:26:31;100583.84;;;31.25;24.77
58471;BME280;44258;51.288;12.068;2022-07-03T09:28:58;100589.50;;;31.57;24.67
58471;BME280;44258;51.288;12.068;2022-07-03T09:31:26;100580.75;;;31.66;24.83
58471;BME280;44258;51.288;12.068;2022-07-03T09:33:56;100591.22;;;31.58;24.86
58471;BME280;44258;51.288;12.068;2022-07-03T09:36:37;100577.09;;;31.59;25.01
58471;BME280;44258;51.288;12.068;2022-07-03T09:39:26;100569.38;;;30.01;24.98
58471;BME280;44258;51.288;12.068;2022-07-03T09:41:57;100575.03;;;31.08;24.21
58471;BME280;44258;51.288;12.068;2022-07-03T09:44:31;100574.19;;;31.07;24.36
58471;BME280;44258;51.288;12.068;2022-07-03T09:47:08;100568.38;;;31.42;23.92
58471;BME280;44258;51.288;12.068;2022-07-03T09:49:48;100565.34;;;31.64;22.61
58471;BME280;44258;51.288;12.068;2022-07-03T09:52:26;100573.44;;;31.72;22.84
58471;BME280;44258;51.288;12.068;2022-07-03T09:54:54;100568.69;;;31.86;23.09
58471;BME280;44258;51.288;12.068;2022-07-03T09:57:20;100564.50;;;32.02;22.73
58471;BME280;44258;51.288;12.068;2022-07-03T09:59:48;100570.06;;;32.09;22.88
58471;BME280;44258;51.288;12.068;2022-07-03T10:02:14;100568.09;;;31.57;23.08
58471;BME280;44258;51.288;12.068;2022-07-03T10:04:41;100560.88;;;31.50;23.19
58471;BME280;44258;51.288;12.068;2022-07-03T10:07:09;100565.22;;;31.25;22.70
58471;BME280;44258;51.288;12.068;2022-07-03T10:09:35;100576.47;;;31.51;23.23
58471;BME280;44258;51.288;12.068;2022-07-03T10:12:03;100563.66;;;32.01;22.47
58471;BME280;44258;51.288;12.068;2022-07-03T10:14:31;100566.47;;;32.40;22.41
58471;BME280;44258;51.288;12.068;2022-07-03T10:16:59;100565.06;;;32.56;22.62
58471;BME280;44258;51.288;12.068;2022-07-03T10:19:28;100562.31;;;32.81;21.84
58471;BME280;44258;51.288;12.068;2022-07-03T10:21:57;100557.03;;;32.41;22.68
58471;BME280;44258;51.288;12.068;2022-07-03T10:24:27;100556.91;;;32.86;22.28
58471;BME280;44258;51.288;12.068;2022-07-03T10:26:55;100559.59;;;33.18;22.17
58471;BME280;44258;51.288;12.068;2022-07-03T10:29:23;100561.81;;;33.09;21.51
58471;BME280;44258;51.288;12.068;2022-07-03T10:31:50;100568.00;;;32.68;21.54
58471;BME280;44258;51.288;12.068;2022-07-03T10:34:18;100565.47;;;32.28;22.27
58471;BME280;44258;51.288;12.068;2022-07-03T10:36:47;100553.44;;;31.95;22.50
58471;BME280;44258;51.288;12.068;2022-07-03T10:39:20;100563.38;;;31.71;22.88
58471;BME280;44258;51.288;12.068;2022-07-03T10:41:54;100552.59;;;31.95;22.86
58471;BME280;44258;51.288;12.068;2022-07-03T10:44:50;100556.31;;;32.20;22.33
58471;BME280;44258;51.288;12.068;2022-07-03T10:47:36;100550.59;;;32.02;22.71
58471;BME280;44258;51.288;12.068;2022-07-03T10:50:03;100554.22;;;32.09;22.33
58471;BME280;44258;51.288;12.068;2022-07-03T10:52:29;100548.59;;;32.22;22.87
58471;BME280;44258;51.288;12.068;2022-07-03T10:54:56;100548.09;;;32.32;22.42
58471;BME280;44258;51.288;12.068;2022-07-03T10:57:24;100549.00;;;32.26;21.69
58471;BME280;44258;51.288;12.068;2022-07-03T11:00:14;100539.88;;;31.67;22.00
58471;BME280;44258;51.288;12.068;2022-07-03T11:02:42;100537.97;;;31.67;23.24
58471;BME280;44258;51.288;12.068;2022-07-03T11:05:14;100534.44;;;31.85;22.79
58471;BME280;44258;51.288;12.068;2022-07-03T11:08:02;100528.19;;;31.97;22.67
58471;BME280;44258;51.288;12.068;2022-07-03T11:10:32;100532.69;;;31.91;22.16
58471;BME280;44258;51.288;12.068;2022-07-03T11:13:04;100529.22;;;31.64;22.53
58471;BME280;44258;51.288;12.068;2022-07-03T11:15:32;100531.19;;;31.43;22.90
58471;BME280;44258;51.288;12.068;2022-07-03T11:18:29;100530.41;;;31.16;22.80
58471;BME280;44258;51.288;12.068;2022-07-03T11:21:18;100525.75;;;30.77;22.85
58471;BME280;44258;51.288;12.068;2022-07-03T11:24:10;100519.97;;;30.85;23.15
58471;BME280;44258;51.288;12.068;2022-07-03T11:26:40;100522.97;;;30.83;23.06
58471;BME280;44258;51.288;12.068;2022-07-03T11:29:24;100518.47;;;30.42;23.50
58471;BME280;44258;51.288;12.068;2022-07-03T11:31:51;100515.50;;;30.37;23.32
58471;BME280;44258;51.288;12.068;2022-07-03T11:34:19;100513.16;;;30.61;23.43
58471;BME280;44258;51.288;12.068;2022-07-03T11:36:46;100510.13;;;30.96;23.11
58471;BME280;44258;51.288;12.068;2022-07-03T11:39:13;100492.97;;;31.32;23.33
58471;BME280;44258;51.288;12.068;2022-07-03T11:41:45;100498.41;;;31.59;22.82
58471;BME280;44258;51.288;12.068;2022-07-03T11:44:20;100503.69;;;31.80;21.89
58471;BME280;44258;51.288;12.068;2022-07-03T11:46:49;100498.75;;;31.82;21.79
58471;BME280;44258;51.288;12.068;2022-07-03T11:49:17;100497.75;;;32.02;22.36
58471;BME280;44258;51.288;12.068;2022-07-03T11:51:54;100501.78;;;31.74;22.07
58471;BME280;44258;51.288;12.068;2022-07-03T11:54:21;100494.84;;;31.90;22.18
58471;BME280;44258;51.288;12.068;2022-07-03T11:56:48;100500.38;;;31.97;22.26
58471;BME280;44258;51.288;12.068;2022-07-03T11:59:14;100492.50;;;31.87;22.46
58471;BME280;44258;51.288;12.068;2022-07-03T12:01:43;100495.19;;;31.62;22.74
58471;BME280;44258;51.288;12.068;2022-07-03T12:04:12;100493.31;;;31.56;22.43
58471;BME280;44258;51.288;12.068;2022-07-03T12:06:40;100493.31;;;31.56;23.09
58471;BME280;44258;51.288;12.068;2022-07-03T12:09:28;100491.69;;;31.28;23.36
58471;BME280;44258;51.288;12.068;2022-07-03T12:11:58;100483.25;;;31.55;22.70
58471;BME280;44258;51.288;12.068;2022-07-03T12:14:40;100482.50;;;31.79;22.44
58471;BME280;44258;51.288;12.068;2022-07-03T12:17:09;100477.44;;;31.11;22.31
58471;BME280;44258;51.288;12.068;2022-07-03T12:19:36;100473.22;;;31.54;22.02
58471;BME280;44258;51.288;12.068;2022-07-03T12:22:04;100475.72;;;31.17;22.63
58471;BME280;44258;51.288;12.068;2022-07-03T12:24:30;100471.81;;;31.31;22.43
58471;BME280;44258;51.288;12.068;2022-07-03T12:27:01;100466.25;;;31.24;22.42
58471;BME280;44258;51.288;12.068;2022-07-03T12:29:28;100470.34;;;31.74;23.13
58471;BME280;44258;51.288;12.068;2022-07-03T12:31:55;100465.50;;;32.26;21.93
58471;BME280;44258;51.288;12.068;2022-07-03T12:34:23;100462.56;;;32.46;22.59
58471;BME280;44258;51.288;12.068;2022-07-03T12:36:57;100461.75;;;31.82;21.50
58471;BME280;44258;51.288;12.068;2022-07-03T12:39:42;100460.06;;;32.06;22.01
58471;BME280;44258;51.288;12.068;2022-07-03T12:42:16;100459.84;;;32.07;21.86
58471;BME280;44258;51.288;12.068;2022-07-03T12:44:55;100462.22;;;32.36;22.44
58471;BME280;44258;51.288;12.068;2022-07-03T12:47:22;100452.03;;;32.73;21.85
58471;BME280;44258;51.288;12.068;2022-07-03T12:49:56;100451.94;;;32.61;21.42
58471;BME280;44258;51.288;12.068;2022-07-03T12:52:23;100447.03;;;32.82;21.24
58471;BME280;44258;51.288;12.068;2022-07-03T12:54:49;100443.34;;;33.06;21.45